LFBH/LRH METAR and TAF weather

Enter ICAO airport designator
Station Type Date Time Source
LFBH METAR 2021/03/08 14:30 UTC NOAA

LFBH 081430Z AUTO 35011KT 8000 NSC 11/01 Q1020 NOSIG


Station Type Date Time Source
LFBH Decoded METAR 2021/03/08 14:30 UTC NOAA

La Rochelle, France (LFBH) 46-09N 001-09W 10M
Mar 08, 2021 - 09:30 AM EST / 2021.03.08 1430 UTC
Wind: from the N (350 degrees) at 13 MPH (11 KT):0
Visibility: 4 mile(s):0
Temperature: 51 F (11 C)
Dew Point: 33 F (1 C)
Relative Humidity: 50%
Pressure (altimeter): 30.12 in. Hg (1020 hPa)
ob: LFBH 081430Z AUTO 35011KT 8000 NSC 11/01 Q1020 NOSIG
cycle: 14

Station Type Date Time Source
LFBH TAF 2021/03/08 12:42 UTC NOAA

TAF LFBH 081100Z 0812/0912 02010KT CAVOK

Example: see airport list